Time;durP1;ratioP1;P1;durP2;ratioP2;P2;SDS_P1;SDS_P2;PMS_P1;PMS_P2;Temp;Humidity;BMP_temperature;BMP_pressure;BME280_temperature;BME280_humidity;BME280_pressure;Samples;Min_cycle;Max_cycle;Signal;HPM_P1;HPM_P2
2021/11/24 00:00:19;;;;;;;941.30;874.60;;;;;;;8.02;73.36;102050.06;687492;28;45391;-69
2021/11/24 00:00:42;;;;;;;968.60;901.05;;;;;;;8.02;73.41;102054.59;687210;28;46354;-69
2021/11/24 00:01:03;;;;;;;980.50;912.50;;;;;;;8.02;73.43;102051.91;686166;28;67075;-69
2021/11/24 00:01:25;;;;;;;987.47;919.35;;;;;;;8.03;73.65;102056.31;689184;28;1401;-71
2021/11/24 00:01:47;;;;;;;992.70;924.35;;;;;;;8.01;73.60;102048.38;688083;28;21567;-69
2021/11/24 00:02:08;;;;;;;978.92;910.92;;;;;;;8.02;73.49;102050.06;686945;28;44341;-69
2021/11/24 00:02:30;;;;;;;986.60;918.38;;;;;;;8.02;73.54;102051.91;687583;28;45238;-67
2021/11/24 00:02:51;;;;;;;933.53;866.88;;;;;;;8.03;73.20;102048.25;687582;28;21084;-67
2021/11/24 00:03:13;;;;;;;924.20;858.15;;;;;;;8.03;73.11;102046.41;688318;28;22406;-67
2021/11/24 00:03:36;;;;;;;927.25;861.03;;;;;;;8.01;73.06;102039.44;687557;28;69240;-67
2021/11/24 00:03:57;;;;;;;961.60;894.42;;;;;;;8.05;73.10;102054.34;688734;28;47172;-67
2021/11/24 00:04:19;;;;;;;975.70;908.10;;;;;;;8.06;73.05;102048.00;688304;28;46446;-67
2021/11/24 00:04:41;;;;;;;960.60;893.40;;;;;;;8.05;73.09;102051.66;683422;28;21171;-67
2021/11/24 00:05:03;;;;;;;989.47;921.10;;;;;;;8.05;73.29;102051.66;685503;28;42562;-67
2021/11/24 00:05:24;;;;;;;991.47;922.97;;;;;;;8.05;73.18;102046.28;683452;28;45098;-67
2021/11/24 00:05:46;;;;;;;972.15;904.40;;;;;;;8.04;73.15;102047.25;685801;28;46188;-67
2021/11/24 00:06:08;;;;;;;925.35;859.17;;;;;;;8.05;73.09;102048.97;686780;28;14239;-68
2021/11/24 00:06:29;;;;;;;949.33;882.45;;;;;;;8.04;73.32;102045.44;686729;28;44140;-67
2021/11/24 00:06:50;;;;;;;984.42;916.35;;;;;;;8.05;73.33;102049.81;690112;28;22371;-67
2021/11/24 00:07:12;;;;;;;994.35;926.05;;;;;;;8.05;73.10;102049.81;687061;28;46332;-67
2021/11/24 00:07:34;;;;;;;986.92;918.88;;;;;;;8.06;73.31;102043.47;688220;28;22374;-67
2021/11/24 00:07:55;;;;;;;965.65;898.03;;;;;;;8.07;73.15;102047.88;685430;28;66511;-67
2021/11/24 00:08:17;;;;;;;946.15;879.47;;;;;;;8.08;72.94;102049.56;687798;28;45126;-67
2021/11/24 00:08:38;;;;;;;952.22;885.33;;;;;;;8.07;73.08;102041.63;688265;28;22367;-67
2021/11/24 00:09:00;;;;;;;959.63;892.53;;;;;;;8.08;73.07;102049.56;687915;28;22316;-67
2021/11/24 00:09:22;;;;;;;958.85;891.67;;;;;;;8.08;72.72;102043.34;684945;28;45230;-67
2021/11/24 00:09:43;;;;;;;933.95;867.63;;;;;;;8.10;72.62;102046.75;684749;28;45262;-67
2021/11/24 00:10:05;;;;;;;957.17;890.13;;;;;;;8.09;72.76;102048.59;685618;28;21548;-67
2021/11/24 00:10:30;;;;;;;961.45;894.35;;;;;;;8.09;72.78;102042.34;684929;28;46339;-67
2021/11/24 00:10:52;;;;;;;974.30;906.70;;;;;;;8.10;72.88;102046.75;683074;28;115106;-67
2021/11/24 00:11:13;;;;;;;946.17;879.50;;;;;;;8.08;72.60;102043.34;687255;28;45244;-67
2021/11/24 00:11:35;;;;;;;940.20;873.70;;;;;;;8.09;73.01;102042.34;690096;28;22093;-67
2021/11/24 00:11:57;;;;;;;961.38;894.13;;;;;;;8.09;72.82;102048.59;689888;28;46359;-68
2021/11/24 00:12:18;;;;;;;966.53;899.22;;;;;;;8.10;72.73;102052.13;689908;28;46414;-67
2021/11/24 00:12:40;;;;;;;959.97;892.70;;;;;;;8.09;72.97;102048.59;689179;28;22236;-67
2021/11/24 00:13:02;;;;;;;950.83;883.97;;;;;;;8.09;72.67;102050.44;687322;28;43838;-67
2021/11/24 00:13:24;;;;;;;924.20;858.20;;;;;;;8.10;72.90;102054.81;687150;28;46420;-67
2021/11/24 00:13:45;;;;;;;938.53;872.05;;;;;;;8.07;72.69;102044.31;687125;28;44904;-67
2021/11/24 00:14:07;;;;;;;938.38;871.92;;;;;;;8.10;72.71;102046.75;687497;28;45167;-67
2021/11/24 00:14:28;;;;;;;949.05;882.25;;;;;;;8.10;72.87;102049.44;688390;28;22409;-67
2021/11/24 00:14:50;;;;;;;975.03;907.28;;;;;;;8.10;72.78;102047.63;688267;28;23382;-67
2021/11/24 00:15:12;;;;;;;998.40;929.80;;;;;;;8.10;72.78;102052.13;689091;28;69437;-67
2021/11/24 00:15:34;;;;;;;1002.85;934.17;;;;;;;8.10;72.85;102049.44;690790;28;23836;-67
2021/11/24 00:15:55;;;;;;;998.65;930.22;;;;;;;8.10;72.75;102047.63;689337;28;45221;-67
2021/11/24 00:16:17;;;;;;;960.67;893.30;;;;;;;8.11;72.61;102046.59;688578;28;22339;-67
2021/11/24 00:16:39;;;;;;;927.80;861.60;;;;;;;8.09;72.55;102043.22;689884;28;44606;-67
2021/11/24 00:17:00;;;;;;;944.63;877.85;;;;;;;8.12;72.50;102044.78;689534;28;44351;-67
2021/11/24 00:17:21;;;;;;;929.55;863.30;;;;;;;8.11;72.54;102043.91;690942;28;23447;-67
2021/11/24 00:17:44;;;;;;;926.67;860.45;;;;;;;8.11;72.54;102043.06;688242;28;46408;-67
2021/11/24 00:18:05;;;;;;;964.03;896.47;;;;;;;8.11;72.90;102046.59;689741;28;44366;-67
2021/11/24 00:18:26;;;;;;;989.70;921.42;;;;;;;8.12;72.41;102048.34;688266;28;21245;-67
2021/11/24 00:18:49;;;;;;;1000.75;932.05;;;;;;;8.14;72.46;102047.34;687711;28;21233;-67
2021/11/24 00:19:11;;;;;;;1001.97;933.30;;;;;;;8.13;72.44;102051.88;686729;28;67980;-67
2021/11/24 00:19:34;;;;;;;994.08;925.78;;;;;;;8.11;72.70;102045.75;688721;28;13923;-67
2021/11/24 00:19:55;;;;;;;974.53;906.78;;;;;;;8.12;72.52;102047.50;688052;28;22401;-67
2021/11/24 00:20:17;;;;;;;958.83;891.72;;;;;;;8.13;72.79;102046.47;687606;28;46357;-67
2021/11/24 00:20:38;;;;;;;921.47;855.55;;;;;;;8.13;72.61;102051.88;688038;28;22394;-67
2021/11/24 00:21:00;;;;;;;926.08;860.08;;;;;;;8.14;72.55;102052.75;687753;28;23433;-67
2021/11/24 00:21:23;;;;;;;964.17;896.92;;;;;;;8.12;72.54;102042.94;686484;28;69845;-67
2021/11/24 00:21:45;;;;;;;977.40;909.63;;;;;;;8.12;72.84;102045.63;687288;28;69311;-67
2021/11/24 00:22:06;;;;;;;970.47;902.92;;;;;;;8.13;72.87;102043.78;685550;28;21523;-67
2021/11/24 00:22:27;;;;;;;920.05;854.22;;;;;;;8.13;72.62;102041.09;685392;28;23545;-67
2021/11/24 00:22:51;;;;;;;928.78;862.58;;;;;;;8.13;72.59;102049.16;685603;28;4195;-67
2021/11/24 00:23:13;;;;;;;951.28;884.38;;;;;;;8.14;72.46;102055.44;684668;28;69997;-67
2021/11/24 00:23:34;;;;;;;942.83;876.17;;;;;;;8.14;72.61;102047.34;688157;28;22397;-67
2021/11/24 00:23:57;;;;;;;940.10;873.58;;;;;;;8.11;72.64;102035.84;688338;28;22375;-67
2021/11/24 00:24:18;;;;;;;921.35;855.50;;;;;;;8.12;72.62;102042.94;687111;28;69225;-67
2021/11/24 00:24:39;;;;;;;947.95;881.25;;;;;;;8.13;72.80;102038.41;688636;28;22388;-68
2021/11/24 00:25:00;;;;;;;972.80;905.13;;;;;;;8.13;72.78;102035.72;688478;28;22340;-68
2021/11/24 00:25:22;;;;;;;985.13;917.15;;;;;;;8.14;72.78;102044.66;687460;28;46328;-67
2021/11/24 00:25:44;;;;;;;988.63;920.42;;;;;;;8.13;72.84;102035.72;687843;28;21332;-67
2021/11/24 00:26:06;;;;;;;979.80;912.03;;;;;;;8.14;72.70;102042.81;687291;28;46264;-69
2021/11/24 00:26:27;;;;;;;981.35;913.47;;;;;;;8.14;72.44;102037.44;687271;28;46320;-68
2021/11/24 00:26:48;;;;;;;987.35;919.15;;;;;;;8.17;72.18;102036.34;687788;28;22401;-67
2021/11/24 00:27:10;;;;;;;968.17;900.63;;;;;;;8.17;72.31;102037.19;688235;28;22391;-67
2021/11/24 00:27:32;;;;;;;919.20;853.40;;;;;;;8.17;72.35;102036.34;687005;28;69448;-67
2021/11/24 00:27:53;;;;;;;926.92;860.50;;;;;;;8.18;72.30;102032.63;685589;28;44584;-68
2021/11/24 00:28:15;;;;;;;934.22;867.85;;;;;;;8.16;72.69;102034.63;685561;28;22387;-68
2021/11/24 00:28:37;;;;;;;934.20;867.97;;;;;;;8.15;72.68;102036.47;683630;28;67433;-68
2021/11/24 00:28:58;;;;;;;926.95;860.85;;;;;;;8.13;72.52;102030.34;685682;28;22397;-67
2021/11/24 00:29:19;;;;;;;939.58;873.03;;;;;;;8.15;72.69;102030.22;687906;28;22348;-67
2021/11/24 00:29:42;;;;;;;949.65;882.80;;;;;;;8.14;72.59;102032.06;683033;28;21674;-67
2021/11/24 00:30:04;;;;;;;955.85;888.85;;;;;;;8.12;72.74;102037.56;684259;28;69274;-67
2021/11/24 00:30:25;;;;;;;955.00;888.05;;;;;;;8.15;72.86;102031.09;687691;28;44008;-67
2021/11/24 00:30:48;;;;;;;955.58;888.55;;;;;;;8.15;72.52;102038.28;687847;28;22375;-67
2021/11/24 00:31:09;;;;;;;922.13;856.13;;;;;;;8.15;72.85;102035.59;686850;28;69398;-67
2021/11/24 00:31:30;;;;;;;936.42;870.03;;;;;;;8.15;72.85;102038.28;688769;28;22409;-68
2021/11/24 00:31:53;;;;;;;957.25;890.08;;;;;;;8.15;72.46;102035.59;688014;28;23330;-67
2021/11/24 00:32:14;;;;;;;967.88;900.35;;;;;;;8.12;72.71;102039.41;686688;28;69173;-67
2021/11/24 00:32:35;;;;;;;933.97;867.63;;;;;;;8.15;72.52;102038.28;688138;28;23471;-67
2021/11/24 00:32:59;;;;;;;936.20;869.70;;;;;;;8.13;72.67;102046.47;688805;28;22827;-68
2021/11/24 00:33:21;;;;;;;925.53;859.58;;;;;;;8.11;72.91;102026.94;686134;28;90498;-68
2021/11/24 00:33:42;;;;;;;936.25;869.80;;;;;;;8.14;72.65;102033.91;687723;28;46375;-68
2021/11/24 00:34:05;;;;;;;952.38;885.45;;;;;;;8.13;72.84;102038.41;688352;28;22359;-68
2021/11/24 00:34:27;;;;;;;946.33;879.60;;;;;;;8.14;72.85;102037.44;686844;28;69333;-68
2021/11/24 00:34:49;;;;;;;944.03;877.35;;;;;;;8.14;72.77;102040.13;687271;28;46466;-68
2021/11/24 00:35:10;;;;;;;953.25;886.15;;;;;;;8.14;72.82;102031.22;687505;28;46780;-68
2021/11/24 00:35:32;;;;;;;938.05;871.45;;;;;;;8.13;72.67;102033.03;688094;28;23658;-68
2021/11/24 00:35:54;;;;;;;938.80;872.10;;;;;;;8.14;72.78;102036.59;688150;28;46294;-68
2021/11/24 00:36:16;;;;;;;951.47;884.55;;;;;;;8.12;72.69;102034.88;687363;28;46357;-68
2021/11/24 00:36:37;;;;;;;987.45;919.38;;;;;;;8.12;73.06;102034.88;687721;28;44409;-68
2021/11/24 00:36:59;;;;;;;992.67;924.38;;;;;;;8.12;72.85;102037.56;688869;28;22374;-69
2021/11/24 00:37:21;;;;;;;995.55;927.15;;;;;;;8.12;72.70;102037.56;687887;28;46408;-68
2021/11/24 00:37:43;;;;;;;995.65;927.05;;;;;;;8.15;72.58;102035.59;686251;28;44401;-70
2021/11/24 00:38:04;;;;;;;983.15;914.95;;;;;;;8.14;72.78;102029.38;687579;28;41215;-69
2021/11/24 00:38:25;;;;;;;987.38;919.03;;;;;;;8.16;72.58;102031.94;688457;28;5096;-69
2021/11/24 00:38:48;;;;;;;988.25;919.90;;;;;;;8.15;72.70;102039.16;688335;28;22449;-69
2021/11/24 00:39:09;;;;;;;932.50;866.15;;;;;;;8.15;72.56;102038.28;686811;28;69384;-69
2021/11/24 00:39:30;;;;;;;939.38;872.78;;;;;;;8.14;72.79;102036.59;688243;28;22405;-69
2021/11/24 00:39:52;;;;;;;962.08;894.78;;;;;;;8.12;72.72;102034.03;687562;28;22242;-69
2021/11/24 00:40:13;;;;;;;958.83;891.65;;;;;;;8.12;73.01;102036.72;686949;28;44388;-69
2021/11/24 00:40:37;;;;;;;933.97;867.70;;;;;;;8.13;72.67;102041.09;689117;28;22310;-69
2021/11/24 00:40:58;;;;;;;945.25;878.65;;;;;;;8.11;72.82;102027.78;685841;28;93075;-69
2021/11/24 00:41:20;;;;;;;976.88;909.17;;;;;;;8.11;72.79;102032.31;689077;28;23433;-69
2021/11/24 00:41:42;;;;;;;987.83;919.63;;;;;;;8.10;72.91;102042.22;688045;28;23471;-69
2021/11/24 00:42:04;;;;;;;991.40;923.00;;;;;;;8.10;73.10;102028.78;686714;28;46381;-69
2021/11/24 00:42:25;;;;;;;969.72;902.15;;;;;;;8.09;73.05;102037.81;688507;28;46340;-68
2021/11/24 00:42:46;;;;;;;956.33;889.17;;;;;;;8.10;73.20;102039.53;687673;28;22400;-69
2021/11/24 00:43:09;;;;;;;943.83;877.15;;;;;;;8.09;73.03;102043.22;688114;28;23485;-69
2021/11/24 00:43:30;;;;;;;947.22;880.30;;;;;;;8.10;73.15;102046.75;688454;28;20713;-68
2021/11/24 00:43:51;;;;;;;957.22;890.10;;;;;;;8.10;73.16;102035.97;688104;28;22377;-68
2021/11/24 00:44:13;;;;;;;962.83;895.53;;;;;;;8.06;73.15;102030.00;687947;28;23369;-68
2021/11/24 00:44:35;;;;;;;932.05;865.72;;;;;;;8.09;73.35;102032.44;687199;28;44378;-68
2021/11/24 00:44:56;;;;;;;922.72;856.70;;;;;;;8.09;73.05;102028.91;687135;28;43816;-68
2021/11/24 00:45:18;;;;;;;948.30;881.55;;;;;;;8.08;73.13;102038.78;688258;28;21562;-68
2021/11/24 00:45:39;;;;;;;965.05;897.72;;;;;;;8.05;73.31;102032.81;687232;28;45260;-68
2021/11/24 00:46:01;;;;;;;961.10;893.90;;;;;;;8.09;73.30;102036.97;688328;28;22387;-68
2021/11/24 00:46:22;;;;;;;987.17;919.13;;;;;;;8.09;73.20;102032.44;685566;28;44364;-68
2021/11/24 00:46:44;;;;;;;993.93;925.53;;;;;;;8.10;72.88;102041.34;685588;28;21381;-68
2021/11/24 00:47:05;;;;;;;986.58;918.38;;;;;;;8.10;72.97;102042.22;685641;28;45200;-68
2021/11/24 00:47:26;;;;;;;986.83;918.60;;;;;;;8.11;72.87;102043.06;688549;28;21548;-68
2021/11/24 00:47:49;;;;;;;985.73;917.47;;;;;;;8.10;73.22;102033.28;681256;28;22022;-69
2021/11/24 00:48:10;;;;;;;984.47;916.42;;;;;;;8.10;72.86;102028.78;682489;28;69981;-68
2021/11/24 00:48:41;;;;;;;979.85;912.08;;;;;;;8.10;73.05;102033.28;682061;28;98127;-68
2021/11/24 00:49:03;;;;;;;966.88;899.28;;;;;;;8.06;73.25;102037.22;682763;28;22379;-69
2021/11/24 00:49:27;;;;;;;909.97;844.38;;;;;;;8.07;73.19;102037.09;681891;28;46414;-69
2021/11/24 00:49:48;;;;;;;915.60;849.78;;;;;;;8.07;73.48;102037.09;683868;28;90685;-68
2021/11/24 00:50:09;;;;;;;918.58;852.58;;;;;;;8.05;73.43;102041.75;688744;28;1024;-68
2021/11/24 00:50:31;;;;;;;922.97;856.95;;;;;;;8.07;73.50;102038.91;689120;28;23570;-68
2021/11/24 00:50:53;;;;;;;912.13;846.35;;;;;;;8.04;73.46;102034.66;687953;28;44363;-68
2021/11/24 00:51:18;;;;;;;926.35;860.13;;;;;;;8.06;73.47;102043.47;688373;28;36390;-68
2021/11/24 00:51:39;;;;;;;910.70;845.17;;;;;;;8.05;73.44;102043.59;689138;28;18430;-68
2021/11/24 00:52:00;;;;;;;917.85;851.97;;;;;;;8.05;73.66;102041.75;686654;28;46396;-68
2021/11/24 00:52:23;;;;;;;940.72;874.22;;;;;;;8.06;73.46;102039.94;689273;28;22386;-68
2021/11/24 00:52:45;;;;;;;933.92;867.63;;;;;;;8.07;73.31;102038.91;686448;28;67464;-68
2021/11/24 00:53:06;;;;;;;937.95;871.50;;;;;;;8.08;73.26;102040.63;688638;28;22445;-69
2021/11/24 00:53:29;;;;;;;931.47;865.33;;;;;;;8.09;73.36;102039.66;688332;28;46365;-69
2021/11/24 00:53:50;;;;;;;934.42;868.10;;;;;;;8.08;73.53;102038.78;687018;28;67466;-69
2021/11/24 00:54:13;;;;;;;953.00;886.10;;;;;;;8.09;73.16;102039.66;688346;28;23433;-68
2021/11/24 00:54:35;;;;;;;959.15;892.08;;;;;;;8.08;73.18;102030.72;688037;28;70191;-68
2021/11/24 00:54:57;;;;;;;977.80;910.17;;;;;;;8.09;73.34;102028.91;688018;28;45230;-69
2021/11/24 00:55:19;;;;;;;978.13;910.42;;;;;;;8.10;73.38;102033.28;688438;28;44335;-68
2021/11/24 00:55:40;;;;;;;957.42;890.40;;;;;;;8.10;73.04;102034.16;687628;28;44349;-68
2021/11/24 00:56:02;;;;;;;939.53;873.03;;;;;;;8.10;73.34;102034.16;688965;28;22381;-68
2021/11/24 00:56:24;;;;;;;956.75;889.75;;;;;;;8.11;73.35;102032.31;688316;28;46291;-68
2021/11/24 00:56:45;;;;;;;974.67;907.10;;;;;;;8.11;73.19;102032.31;687939;28;44380;-69
2021/11/24 00:57:06;;;;;;;970.03;902.63;;;;;;;8.12;73.19;102025.97;688675;28;22364;-68
2021/11/24 00:57:29;;;;;;;971.95;904.40;;;;;;;8.11;73.29;102037.69;689262;28;22381;-69
2021/11/24 00:57:50;;;;;;;975.90;908.10;;;;;;;8.11;73.22;102029.63;686145;28;69396;-68
2021/11/24 00:58:14;;;;;;;949.70;882.78;;;;;;;8.11;73.12;102029.63;686793;28;69957;-68
2021/11/24 00:58:36;;;;;;;949.28;882.50;;;;;;;8.10;73.40;102031.47;688695;28;22466;-69
2021/11/24 00:58:57;;;;;;;974.92;907.13;;;;;;;8.12;73.45;102028.66;686953;28;69347;-69
2021/11/24 00:59:18;;;;;;;982.65;914.78;;;;;;;8.11;73.26;102030.47;688306;28;22358;-68
2021/11/24 00:59:40;;;;;;;985.75;917.75;;;;;;;8.12;73.31;102031.34;688022;28;23468;-68
2021/11/24 01:00:02;;;;;;;981.20;913.20;;;;;;;8.12;73.07;102028.66;687820;28;45225;-68
2021/11/24 01:00:25;;;;;;;986.70;918.60;;;;;;;8.12;72.92;102029.50;688447;28;45240;-69
2021/11/24 01:00:47;;;;;;;973.80;906.08;;;;;;;8.12;73.24;102034.88;686924;28;68335;-68
2021/11/24 01:01:10;;;;;;;982.42;914.58;;;;;;;8.10;73.16;102023.41;688292;28;46304;-68
2021/11/24 01:01:32;;;;;;;968.80;901.25;;;;;;;8.11;73.42;102035.84;687275;28;69552;-68
2021/11/24 01:01:53;;;;;;;963.78;896.53;;;;;;;8.11;73.29;102029.63;688953;28;22512;-68
2021/11/24 01:02:14;;;;;;;971.13;903.42;;;;;;;8.12;73.20;102028.66;689215;28;11287;-68
2021/11/24 01:02:36;;;;;;;943.70;876.92;;;;;;;8.10;73.34;102027.91;688063;28;22200;-68
2021/11/24 01:02:58;;;;;;;934.53;868.20;;;;;;;8.11;73.36;102022.38;688482;28;46371;-68
2021/11/24 01:03:19;;;;;;;969.83;902.33;;;;;;;8.11;73.45;102029.63;688404;28;46663;-69
2021/11/24 01:03:41;;;;;;;977.97;910.28;;;;;;;8.10;73.54;102028.78;688437;28;22415;-68
2021/11/24 01:04:03;;;;;;;985.88;917.80;;;;;;;8.10;73.40;102028.78;687910;28;46406;-68
2021/11/24 01:04:26;;;;;;;981.63;913.53;;;;;;;8.10;73.10;102026.09;688248;28;45992;-68
2021/11/24 01:04:47;;;;;;;979.00;911.15;;;;;;;8.10;73.36;102033.28;687533;28;67457;-68
2021/11/24 01:05:10;;;;;;;983.50;915.55;;;;;;;8.10;73.37;102027.91;688296;28;21518;-68
2021/11/24 01:05:31;;;;;;;982.33;914.22;;;;;;;8.09;73.31;102024.38;687739;28;46445;-68
2021/11/24 01:05:52;;;;;;;935.72;869.25;;;;;;;8.11;73.39;102026.94;687378;28;45224;-68
2021/11/24 01:06:14;;;;;;;906.05;840.65;;;;;;;8.11;73.01;102029.63;688669;28;23344;-68
2021/11/24 01:06:36;;;;;;;929.88;863.63;;;;;;;8.10;72.99;102026.09;688810;28;22403;-68
2021/11/24 01:06:57;;;;;;;925.40;859.17;;;;;;;8.10;73.29;102019.84;688037;28;68823;-68
2021/11/24 01:07:19;;;;;;;925.13;859.03;;;;;;;8.09;73.17;102029.75;686975;28;20854;-69
2021/11/24 01:07:40;;;;;;;931.95;865.63;;;;;;;8.09;73.13;102029.75;688322;28;23040;-68
2021/11/24 01:08:02;;;;;;;936.50;869.80;;;;;;;8.08;73.35;102022.66;688983;28;45248;-68
2021/11/24 01:08:24;;;;;;;933.03;866.80;;;;;;;8.09;73.09;102023.53;688679;28;45340;-68
2021/11/24 01:08:45;;;;;;;940.55;874.05;;;;;;;8.08;73.12;102025.34;688984;28;46420;-68
2021/11/24 01:09:07;;;;;;;933.10;866.72;;;;;;;8.09;73.24;102024.38;691812;28;23428;-68
2021/11/24 01:09:29;;;;;;;930.90;864.65;;;;;;;8.09;73.64;102024.38;693323;28;22224;-68
2021/11/24 01:09:51;;;;;;;934.60;868.20;;;;;;;8.09;73.25;102024.38;686916;28;65457;-68
2021/11/24 01:10:13;;;;;;;937.53;871.15;;;;;;;8.09;73.11;102024.38;687838;28;36697;-68
2021/11/24 01:10:36;;;;;;;926.35;860.22;;;;;;;8.09;73.26;102027.06;687903;28;45239;-69
2021/11/24 01:10:57;;;;;;;926.05;859.78;;;;;;;8.09;73.16;102020.84;687212;28;46262;-68
2021/11/24 01:11:19;;;;;;;919.95;854.00;;;;;;;8.10;73.13;102028.78;687833;28;45248;-68
2021/11/24 01:11:41;;;;;;;920.70;854.90;;;;;;;8.11;73.10;102033.16;688245;28;21518;-68
2021/11/24 01:12:04;;;;;;;938.22;871.80;;;;;;;8.12;72.97;102023.25;687720;28;44427;-68
2021/11/24 01:12:25;;;;;;;945.35;878.65;;;;;;;8.12;72.85;102017.88;687029;28;90682;-69
2021/11/24 01:12:47;;;;;;;952.10;885.13;;;;;;;8.12;72.84;102025.97;688625;28;22314;-69
2021/11/24 01:13:11;;;;;;;956.83;889.72;;;;;;;8.11;73.04;102025.09;685965;28;44306;-69
2021/11/24 01:13:32;;;;;;;974.30;906.70;;;;;;;8.08;73.07;102017.28;684407;28;90666;-69
2021/11/24 01:13:54;;;;;;;972.67;905.08;;;;;;;8.10;73.20;102028.78;687345;28;22251;-70
2021/11/24 01:14:15;;;;;;;981.10;913.22;;;;;;;8.11;73.23;102024.25;687184;28;22353;-69
2021/11/24 01:14:38;;;;;;;991.45;923.22;;;;;;;8.10;73.26;102030.59;687517;28;45212;-70
2021/11/24 01:14:59;;;;;;;979.17;911.38;;;;;;;8.09;73.11;102026.22;687340;28;45229;-70
2021/11/24 01:15:22;;;;;;;923.03;857.05;;;;;;;8.08;73.53;102021.81;688400;28;45223;-69
2021/11/24 01:15:45;;;;;;;931.80;865.20;;;;;;;8.07;73.40;102026.34;686686;28;68605;-68
2021/11/24 01:16:08;;;;;;;953.00;885.95;;;;;;;8.08;73.46;102029.88;687340;28;46416;-69
2021/11/24 01:16:29;;;;;;;959.35;892.03;;;;;;;8.08;73.39;102028.03;687384;28;67272;-69
2021/11/24 01:16:50;;;;;;;940.85;874.13;;;;;;;8.08;73.32;102030.72;687806;28;46428;-69
2021/11/24 01:17:12;;;;;;;961.47;894.22;;;;;;;8.07;73.38;102020.09;685996;28;22389;-69
2021/11/24 01:17:34;;;;;;;974.63;906.92;;;;;;;8.08;73.22;102021.81;686103;28;21519;-69
2021/11/24 01:17:56;;;;;;;992.97;924.30;;;;;;;8.08;73.48;102022.66;682829;28;89077;-69
2021/11/24 01:18:17;;;;;;;1000.15;931.55;;;;;;;8.08;73.47;102028.03;687676;28;21505;-69
2021/11/24 01:18:39;;;;;;;994.08;925.58;;;;;;;8.09;73.04;102024.38;684969;28;46669;-69
2021/11/24 01:19:01;;;;;;;981.88;913.95;;;;;;;8.11;73.14;102026.94;685347;28;45088;-70
2021/11/24 01:19:22;;;;;;;987.53;919.53;;;;;;;8.06;73.20;102018.41;688204;28;46620;-70
2021/11/24 01:19:45;;;;;;;973.60;905.88;;;;;;;8.11;73.06;102024.25;688717;28;22485;-69
2021/11/24 01:20:08;;;;;;;938.80;872.20;;;;;;;8.09;72.97;102018.97;686804;28;69970;-70
2021/11/24 01:20:30;;;;;;;950.70;883.83;;;;;;;8.12;72.71;102021.41;687574;28;69246;-69
2021/11/24 01:20:51;;;;;;;957.05;889.92;;;;;;;8.11;73.04;102022.38;688531;28;46302;-69
2021/11/24 01:21:13;;;;;;;955.50;888.53;;;;;;;8.13;72.95;102030.34;686921;28;19600;-69
2021/11/24 01:21:35;;;;;;;954.65;887.65;;;;;;;8.12;72.88;102026.81;686225;28;45204;-70
2021/11/24 01:21:56;;;;;;;941.00;874.33;;;;;;;8.12;72.86;102024.09;686047;28;44452;-69
2021/11/24 01:22:18;;;;;;;924.97;858.97;;;;;;;8.12;72.70;102023.25;686730;28;22371;-70
2021/11/24 01:22:39;;;;;;;951.65;884.72;;;;;;;8.12;72.96;102026.81;687866;28;21542;-69
2021/11/24 01:23:02;;;;;;;971.92;904.33;;;;;;;8.10;72.74;102023.41;687899;28;46494;-70
2021/11/24 01:23:23;;;;;;;971.03;903.58;;;;;;;8.11;73.11;102018.84;687903;28;46404;-69
2021/11/24 01:23:46;;;;;;;984.90;916.90;;;;;;;8.11;72.93;102022.38;687615;28;47290;-70
2021/11/24 01:24:07;;;;;;;993.85;925.45;;;;;;;8.11;73.11;102027.78;684072;28;67461;-70
2021/11/24 01:24:30;;;;;;;997.55;928.92;;;;;;;8.12;72.95;102023.25;685553;28;21541;-70
2021/11/24 01:24:51;;;;;;;954.10;887.03;;;;;;;8.09;73.28;102018.97;683656;28;67229;-69
2021/11/24 01:25:12;;;;;;;977.83;910.03;;;;;;;8.10;73.17;102022.53;685393;28;21294;-70
2021/11/24 01:25:34;;;;;;;973.25;905.55;;;;;;;8.11;73.29;102024.25;686878;28;23440;-69
2021/11/24 01:25:56;;;;;;;951.83;884.80;;;;;;;8.09;73.04;102021.69;688000;28;22252;-70
2021/11/24 01:26:19;;;;;;;948.65;881.80;;;;;;;8.12;73.14;102028.66;687472;28;69434;-69
2021/11/24 01:26:41;;;;;;;978.58;910.60;;;;;;;8.11;72.93;102026.94;687089;28;67463;-69
2021/11/24 01:27:02;;;;;;;988.55;920.42;;;;;;;8.10;73.17;102028.78;688623;28;21220;-70
2021/11/24 01:27:24;;;;;;;978.20;910.50;;;;;;;8.10;73.01;102017.13;688312;28;47302;-69
2021/11/24 01:27:46;;;;;;;961.72;894.42;;;;;;;8.10;73.23;102020.72;686067;28;47974;-70
2021/11/24 01:28:07;;;;;;;958.15;891.05;;;;;;;8.10;73.15;102026.09;688446;28;22447;-70
2021/11/24 01:28:29;;;;;;;982.90;915.10;;;;;;;8.11;72.99;102018.84;687405;28;46404;-70
2021/11/24 01:28:51;;;;;;;992.58;924.33;;;;;;;8.11;72.98;102016.16;687339;28;46287;-70
2021/11/24 01:29:12;;;;;;;987.42;919.28;;;;;;;8.11;73.29;102021.56;688283;28;24792;-69
2021/11/24 01:29:33;;;;;;;996.78;928.33;;;;;;;8.12;73.38;102020.56;687101;28;46428;-70
2021/11/24 01:29:56;;;;;;;986.83;918.78;;;;;;;8.10;73.08;102023.41;688371;28;21167;-69
2021/11/24 01:30:17;;;;;;;971.60;904.10;;;;;;;8.11;73.08;102025.09;687920;28;46267;-69
2021/11/24 01:30:38;;;;;;;982.08;914.17;;;;;;;8.10;73.11;102023.41;687521;28;45246;-70
2021/11/24 01:30:59;;;;;;;967.70;900.30;;;;;;;8.12;73.35;102023.25;689114;28;23603;-69
2021/11/24 01:31:22;;;;;;;947.92;881.22;;;;;;;8.11;73.21;102024.25;689206;28;22496;-70
2021/11/24 01:31:43;;;;;;;968.45;900.95;;;;;;;8.08;73.20;102022.66;686748;28;69193;-69
2021/11/24 01:32:05;;;;;;;977.88;910.00;;;;;;;8.12;73.17;102028.66;688724;28;22439;-69
2021/11/24 01:32:27;;;;;;;992.83;924.35;;;;;;;8.12;73.20;102025.97;687832;28;46276;-69
2021/11/24 01:32:49;;;;;;;985.75;917.63;;;;;;;8.11;73.24;102024.25;687985;28;22164;-69
2021/11/24 01:33:10;;;;;;;983.80;915.80;;;;;;;8.13;73.22;102027.66;687145;28;69472;-69
2021/11/24 01:33:32;;;;;;;981.10;913.08;;;;;;;8.12;72.95;102026.81;688994;28;23486;-69
2021/11/24 01:33:53;;;;;;;971.72;904.13;;;;;;;8.13;73.04;102027.66;689553;28;22055;-69
2021/11/24 01:34:15;;;;;;;974.17;906.47;;;;;;;8.13;73.10;102024.97;688796;28;46338;-69
2021/11/24 01:34:36;;;;;;;976.00;908.08;;;;;;;8.12;73.03;102021.41;688897;28;44446;-70
2021/11/24 01:34:59;;;;;;;997.70;929.20;;;;;;;8.14;73.06;102028.53;689428;28;22396;-69
2021/11/24 01:35:20;;;;;;;993.25;924.85;;;;;;;8.14;73.02;102031.22;687925;28;69442;-69
2021/11/24 01:35:43;;;;;;;948.47;881.60;;;;;;;8.11;73.18;102029.63;689301;28;21544;-70
2021/11/24 01:36:04;;;;;;;939.08;872.47;;;;;;;8.14;72.96;102032.06;686946;28;69400;-69
2021/11/24 01:36:26;;;;;;;931.40;865.15;;;;;;;8.15;72.90;102038.28;688898;28;22376;-70
2021/11/24 01:36:47;;;;;;;937.75;871.08;;;;;;;8.15;73.14;102031.09;687367;28;45307;-69
2021/11/24 01:37:10;;;;;;;947.63;880.42;;;;;;;8.15;73.12;102028.38;688070;28;21305;-70
2021/11/24 01:37:32;;;;;;;943.63;876.88;;;;;;;8.14;73.05;102023.97;687699;28;44456;-70
2021/11/24 01:37:55;;;;;;;952.55;885.35;;;;;;;8.15;73.16;102023.00;661958;28;90252;-70
2021/11/24 01:38:17;;;;;;;947.90;881.00;;;;;;;8.16;73.26;102031.94;690967;28;26656;-70
2021/11/24 01:38:39;;;;;;;943.70;876.95;;;;;;;8.14;73.20;102025.84;687678;28;21499;-69
2021/11/24 01:39:00;;;;;;;968.42;900.80;;;;;;;8.16;72.98;102030.06;686983;28;69437;-69
2021/11/24 01:39:21;;;;;;;982.72;914.72;;;;;;;8.18;73.14;102029.94;688654;28;22390;-69